Neosho Falls, Kansas
Current Conditions -  °F | °C
As of 5:52 AM on Monday 24 Nov 2014 (Local Time) from KCNU Reporting Station
Clear Clear  
Wind Chill: 27°   Ceiling: Unl
Heat Index: 35°   Visibility: 10mi
Dew Point: 27°   Wind: 10mph
Humidity: 72%   Direction: 270°W
Pressure: 29.73"   Gusts: NA
Location:  38.01°N, 95.56°W
Report Text: KCNU 241152Z AUTO 27009KT 10SM CLR 02/M03 A2973 RMK AO2 SLP069 70008 T00171028 10061 20017 51017
Loading
Personal Weather Stations






























Interactive Weather Map New forecast layout! Learn more

10-Day Weather Forecast

Advertisements
Track Severe Weather on mobile